Terminal Aerodrome Forecast
Issued by NWS Boston, MA

Home | Current Version | Previous Version | Text Only | Print | Product List | Glossary On
Versions: 1 2 3 4 5 6 7 8 9 10 11 12 13 14 15 16 17 18 19 20 21 22 23 24 25 26
000
FTUS41 KBOX 260700 AAA
TAFBOS
TAF AMD
KBOS 260700Z 2607/2712 00000KT 1/4SM FG VV002
     FM261130 00000KT 2SM BR BKN005
     FM261300 13003KT P6SM BKN008
     FM261500 12008KT P6SM SCT015
     FM261800 10008KT P6SM FEW015
     FM270000 18003KT P6SM SCT015
     FM270600 VRB03KT 2SM BR BKN008=

USA.gov is the U.S. government's official web portal to all federal, state and local government web resources and services.